Data for 08/06/2008

Time Sea-Level Adjusted Pressure Absolute Pressure Temperature Relative Humidity Dew Point   
(mb) (inHg) (mb) (inHg) (C) (F) (%) (C) (F)
00:05 1023 30.21 852 25.16 21 69.7 34 4.6 40.3
00:10 1023 30.21 852 25.16 20.9 69.6 34 4.6 40.3
00:15 1023 30.21 852 25.16 20.8 69.4 35 5 40.9
00:20 1023 30.21 852 25.16 20.8 69.4 35 4.8 40.6
00:25 1023 30.21 852 25.16 21 69.8 34 4.6 40.3
00:30 1023 30.21 853 25.19 21.1 69.9 33 4.5 40.1
00:35 1023 30.21 853 25.19 21.4 70.6 33 4.6 40.3
00:40 1023 30.21 853 25.19 21.4 70.6 33 4.8 40.6
00:45 1024 30.24 853 25.19 21.3 70.3 34 4.8 40.6
00:50 1024 30.24 853 25.19 21.5 70.6 33 4.7 40.5
00:55 1024 30.24 853 25.19 21.5 70.6 34 5 41
01:00 1024 30.24 853 25.19 21.4 70.5 33 4.8 40.6
01:05 1024 30.24 853 25.19 21.3 70.3 33 4.6 40.3
01:10 1024 30.24 853 25.19 21.3 70.3 32 4.2 39.6
01:15 1024 30.24 853 25.19 21.3 70.4 32 3.9 39.1
01:20 1024 30.24 853 25.19 21.4 70.4 30 3.5 38.2
01:25 1024 30.24 853 25.19 21.5 70.6 29 3.1 37.5
01:30 1024 30.24 853 25.19 21.4 70.4 31 3.6 38.4
01:35 1024 30.24 853 25.19 21.2 70.1 30 2.9 37.1
01:40 1024 30.24 853 25.19 21.2 70.2 30 2.9 37.3
01:45 1024 30.24 853 25.19 21.2 70.2 29 2.7 36.8
01:50 1024 30.24 853 25.19 21.2 70.1 29 2.4 36.4
01:55 1024 30.24 853 25.19 21.1 70 29 2.6 36.6
02:00 1024 30.24 853 25.19 21 69.8 29 2.4 36.3
02:05 1024 30.24 853 25.19 20.9 69.6 29 2.2 35.9
02:10 1024 30.24 854 25.22 20.8 69.4 29 2.3 36.1
02:15 1024 30.24 854 25.22 20.6 69.1 29 2.3 36.1
02:20 1024 30.24 854 25.22 20.4 68.8 30 2.3 36.1
02:25 1025 30.27 854 25.22 20.2 68.4 30 2.2 35.9
02:30 1025 30.27 854 25.22 20.3 68.6 28 1.6 34.9
02:35 1024 30.24 854 25.22 20.7 69.3 29 2 35.6
02:40 1024 30.24 854 25.22 20.7 69.3 28 1.9 35.4
02:45 1025 30.27 854 25.22 20.6 69.1 31 2.9 37.2
02:50 1025 30.27 854 25.22 19.7 67.5 32 2.6 36.7
02:55 1025 30.27 854 25.22 19.3 66.8 34 3.3 37.9
03:00 1025 30.27 854 25.22 19 66.1 37 4 39.1
03:05 1025 30.27 854 25.22 18.7 65.7 36 3.5 38.3
03:10 1025 30.27 854 25.22 18.5 65.4 38 4.2 39.5
03:15 1025 30.27 854 25.22 18.3 64.9 39 4.3 39.8
03:20 1025 30.27 854 25.22 18 64.4 39 4 39.3
03:25 1025 30.27 854 25.22 18 64.5 36 2.7 36.9
03:30 1025 30.27 854 25.22 18.1 64.6 36 2.8 37.1
03:35 1025 30.27 854 25.22 18.3 64.9 38 3.8 38.8
03:40 1025 30.27 854 25.22 17.7 63.9 38 3.5 38.3
03:45 1025 30.27 854 25.22 17.6 63.7 36 2.6 36.7
03:50 1025 30.27 854 25.22 17.7 63.8 35 2.2 36
03:55 1025 30.27 854 25.22 18 64.3 37 3.1 37.6
04:00 1025 30.27 854 25.22 17.9 64.1 35 2.5 36.5
04:05 1025 30.27 854 25.22 17.8 64.1 35 2.4 36.4
04:10 1025 30.27 854 25.22 17.9 64.2 35 2.5 36.5
04:15 1025 30.27 854 25.22 17.8 64.1 35 2.5 36.5
04:20 1025 30.27 854 25.22 17.7 63.8 35 2.1 35.7
04:25 1025 30.27 854 25.22 17.6 63.7 36 2.4 36.4
04:30 1025 30.27 854 25.22 17.4 63.3 36 2.2 36
04:35 1025 30.27 854 25.22 17.2 63 37 2.6 36.6
04:40 1025 30.27 854 25.22 16.6 61.9 47 5.5 41.9
04:45 1025 30.27 854 25.22 15.7 60.3 48 4.7 40.5
04:50 1025 30.27 854 25.22 15.7 60.2 46 4 39.3
04:55 1025 30.27 854 25.22 15.9 60.6 45 4.1 39.3
05:00 1025 30.27 854 25.22 16 60.8 46 4.3 39.8
05:05 1025 30.27 854 25.22 15.8 60.4 47 4.7 40.4
05:10 1025 30.27 854 25.22 15.4 59.6 51 5.3 41.5
05:15 1025 30.27 854 25.22 15 58.9 54 5.8 42.5
05:20 1025 30.27 855 25.25 14.7 58.4 54 5.7 42.2
05:25 1025 30.27 854 25.22 14.5 58.1 54 5.4 41.7
05:30 1025 30.27 854 25.22 14.7 58.5 53 5.2 41.4
05:35 1025 30.27 854 25.22 14.7 58.5 53 5.4 41.7
05:40 1025 30.27 855 25.25 14.5 58.1 53 5.2 41.4
05:45 1025 30.27 855 25.25 14.4 57.9 55 5.6 42.1
05:50 1025 30.27 855 25.25 14.1 57.4 56 5.4 41.8
05:55 1025 30.27 855 25.25 13.8 56.9 58 5.8 42.4
06:00 1025 30.27 855 25.25 13.8 56.9 57 5.4 41.8
06:05 1025 30.27 855 25.25 13.8 56.9 58 5.7 42.3
06:10 1025 30.27 855 25.25 13.7 56.7 57 5.6 42
06:15 1025 30.27 855 25.25 14 57.1 55 5.2 41.4
06:20 1025 30.27 855 25.25 14.1 57.5 54 5.1 41.1
06:25 1025 30.27 855 25.25 13.9 57.1 56 5.3 41.5
06:30 1025 30.27 855 25.25 13.6 56.4 58 5.5 41.9
06:35 1026 30.3 855 25.25 13.3 55.9 59 5.4 41.8
06:40 1026 30.3 855 25.25 13.3 56 58 5.3 41.6
06:45 1026 30.3 855 25.25 13.4 56.2 58 5.4 41.7
06:50 1026 30.3 855 25.25 13.4 56.2 58 5.4 41.7
06:55 1026 30.3 855 25.25 13.6 56.6 58 5.5 41.9
07:00 1026 30.3 855 25.25 13.5 56.4 59 5.7 42.3
07:05 1026 30.3 855 25.25 13.8 56.8 57 5.5 41.9
07:10 1026 30.3 855 25.25 14 57.1 56 5.3 41.5
07:15 1026 30.3 855 25.25 14.4 58 53 5.1 41.2
07:20 1026 30.3 855 25.25 14.9 58.8 53 5.4 41.8
07:25 1026 30.3 855 25.25 15.1 59.3 52 5.4 41.7
07:30 1026 30.3 855 25.25 15.4 59.7 50 5.1 41.3
07:35 1026 30.3 855 25.25 15.8 60.4 50 5.5 42
07:40 1026 30.3 855 25.25 15.7 60.3 51 5.8 42.4
07:45 1026 30.3 855 25.25 16.2 61.1 49 5.6 42
07:50 1026 30.3 855 25.25 16.9 62.5 48 5.9 42.6
07:55 1026 30.3 855 25.25 17 62.7 47 5.8 42.4
08:00 1026 30.3 855 25.25 17.5 63.4 46 5.9 42.6
08:05 1026 30.3 855 25.25 18 64.3 46 6.2 43.1
08:10 1026 30.3 855 25.25 18.4 65 45 6.5 43.7
08:15 1026 30.3 855 25.25 18.1 64.6 48 7.1 44.8
08:20 1026 30.3 855 25.25 18 64.3 46 6.3 43.4
08:25 1026 30.3 855 25.25 18.6 65.5 43 6.1 42.9
08:30 1026 30.3 855 25.25 19 66.1 43 6.2 43.2
08:35 1026 30.3 855 25.25 19 66.2 43 6.4 43.5
08:40 1026 30.3 855 25.25 18.9 66 42 5.8 42.4
08:45 1026 30.3 855 25.25 18.7 65.7 42 5.6 42.2
08:50 1026 30.3 855 25.25 19.5 67.1 40 5.8 42.4
08:55 1026 30.3 855 25.25 20 68 39 5.8 42.4
09:00 1026 30.3 855 25.25 20.6 69 38 5.8 42.4
09:05 1026 30.3 855 25.25 21 69.7 37 5.9 42.5
09:10 1026 30.3 855 25.25 20.9 69.6 37 5.7 42.2
09:15 1026 30.3 855 25.25 20.7 69.2 35 4.9 40.9
09:20 1026 30.3 855 25.25 20.9 69.6 33 4.1 39.3
09:25 1026 30.3 855 25.25 21.1 70 33 4.5 40.1
09:30 1026 30.3 855 25.25 21.2 70.2 34 4.8 40.7
09:35 1026 30.3 855 25.25 20.8 69.5 33 4 39.2
09:40 1026 30.3 855 25.25 20.9 69.6 33 4.3 39.8
09:45 1026 30.3 855 25.25 21.2 70.2 33 4.4 39.9
09:50 1026 30.3 855 25.25 21.3 70.3 33 4.6 40.3
09:55 1026 30.3 855 25.25 21.4 70.5 33 4.5 40.1
10:00 1025 30.27 855 25.25 21.5 70.6 32 4.4 39.9
10:05 1025 30.27 855 25.25 21.9 71.5 32 4.7 40.4
10:10 1026 30.3 855 25.25 22.1 71.9 33 5.4 41.7
10:15 1026 30.3 855 25.25 21.6 70.9 35 5.7 42.2
10:20 1025 30.27 855 25.25 21.6 70.8 34 5.3 41.5
10:25 1025 30.27 855 25.25 21.4 70.4 35 5.4 41.7
10:30 1025 30.27 855 25.25 21.7 71.1 33 4.8 40.6
10:35 1025 30.27 855 25.25 21.5 70.7 34 5.3 41.6
10:40 1025 30.27 855 25.25 21.5 70.6 33 4.8 40.6
10:45 1025 30.27 855 25.25 21.4 70.5 32 4.3 39.8
10:50 1025 30.27 854 25.22 22.6 72.6 30 4.5 40.1
10:55 1025 30.27 854 25.22 23.1 73.7 31 5.1 41.2
11:00 1025 30.27 854 25.22 23.1 73.6 30 4.8 40.6
11:05 1025 30.27 854 25.22 23.1 73.6 30 4.8 40.6
11:10 1025 30.27 854 25.22 22.3 72.1 32 5 41.1
11:15 1025 30.27 854 25.22 22.6 72.7 30 4.5 40.2
11:20 1025 30.27 855 25.25 23.5 74.2 29 4.7 40.4
11:25 1025 30.27 854 25.22 24.3 75.7 28 4.8 40.6
11:30 1025 30.27 854 25.22 24.5 76 30 5.8 42.4
11:35 1025 30.27 854 25.22 23.5 74.4 31 5.6 42
11:40 1025 30.27 854 25.22 23 73.3 31 5.2 41.4
11:45 1025 30.27 854 25.22 23.3 73.9 31 5.3 41.6
11:50 1025 30.27 854 25.22 24.1 75.4 30 5.6 42
11:55 1025 30.27 854 25.22 24.5 76.1 28 5.3 41.5
12:00 1025 30.27 854 25.22 24.4 75.8 31 6.5 43.7
12:05 1025 30.27 854 25.22 24.2 75.6 30 6 42.7
12:10 1025 30.27 854 25.22 24.6 76.3 29 5.6 42.1
12:15 1025 30.27 854 25.22 24.8 76.6 29 5.7 42.3
12:20 1025 30.27 854 25.22 24.5 76.1 30 6 42.7
12:25 1025 30.27 854 25.22 25.2 77.4 29 6.2 43.2
12:30 1025 30.27 854 25.22 24.4 75.9 29 5.6 42
12:35 1025 30.27 854 25.22 24.8 76.7 29 5.7 42.3
12:40 1025 30.27 854 25.22 24.7 76.4 30 6.3 43.4
12:45 1025 30.27 854 25.22 24.4 75.9 30 5.8 42.5
12:50 1025 30.27 854 25.22 25.9 78.5 28 6.4 43.5
12:55 1025 30.27 854 25.22 26.8 80.3 26 5.9 42.7
13:00 1024 30.24 854 25.22 27 80.6 26 6 42.9
13:05 1024 30.24 854 25.22 27.1 80.8 25 5.8 42.4
13:10 1024 30.24 854 25.22 27.2 81 27 6.7 44.1
13:15 1024 30.24 854 25.22 27.3 81.2 26 6.3 43.4
13:20 1024 30.24 853 25.19 27.3 81.2 27 6.8 44.3
13:25 1024 30.24 853 25.19 27.1 80.7 26 6.2 43.1
13:30 1024 30.24 853 25.19 26.9 80.4 26 6 42.9
13:35 1024 30.24 853 25.19 27.4 81.4 26 6.6 43.9
13:40 1024 30.24 853 25.19 27.6 81.7 26 6.6 43.9
13:45 1024 30.24 853 25.19 28.1 82.5 25 6.7 44.1
13:50 1024 30.24 853 25.19 28.7 83.6 24 6.4 43.6
13:55 1024 30.24 853 25.19 27.5 81.5 26 6.6 43.9
14:00 1024 30.24 853 25.19 27 80.6 27 6.4 43.6
14:05 1024 30.24 853 25.19 28.1 82.5 26 7.1 44.7
14:10 1024 30.24 853 25.19 29.3 84.7 23 6.2 43.2
14:15 1024 30.24 853 25.19 29.8 85.6 23 6.9 44.3
14:20 1024 30.24 853 25.19 29.5 85 24 7 44.5
14:25 1024 30.24 853 25.19 29.2 84.6 24 7.1 44.9
14:30 1024 30.24 853 25.19 29.4 84.8 24 6.8 44.2
14:35 1024 30.24 853 25.19 29.9 85.7 23 6.6 43.9
14:40 1024 30.24 853 25.19 29.3 84.7 23 6.1 43
14:45 1024 30.24 853 25.19 29.8 85.7 22 6.2 43.1
14:50 1023 30.21 853 25.19 29.4 84.9 23 6.7 44.1
14:55 1023 30.21 853 25.19 29.3 84.8 23 6.1 43
15:00 1023 30.21 852 25.16 28.9 84 24 6.5 43.7
15:05 1023 30.21 852 25.16 29.1 84.3 24 6.8 44.3
15:10 1023 30.21 852 25.16 30.4 86.6 22 6.8 44.3
15:15 1023 30.21 852 25.16 30 85.9 23 6.9 44.5
15:20 1023 30.21 852 25.16 29.2 84.6 23 6.2 43.2
15:25 1023 30.21 852 25.16 29.9 85.7 23 6.5 43.8
15:30 1023 30.21 852 25.16 29.9 85.8 22 6.1 43.1
15:35 1023 30.21 852 25.16 30.9 87.7 21 6.7 44
15:40 1023 30.21 852 25.16 31.3 88.3 22 7.1 44.8
15:45 1023 30.21 852 25.16 31.2 88.2 24 8.7 47.6
15:50 1023 30.21 852 25.16 31.2 88.2 20 6.2 43.1
15:55 1023 30.21 852 25.16 31.1 88 20 5.5 42
16:00 1023 30.21 852 25.16 31.3 88.4 21 6.5 43.7
16:05 1023 30.21 852 25.16 30.8 87.4 20 5.7 42.3
16:10 1022 30.18 852 25.16 30.4 86.6 19 4.3 39.8
16:15 1022 30.18 852 25.16 31 87.8 17 3.8 38.8
16:20 1022 30.18 852 25.16 31.3 88.4 18 4.4 39.9
16:25 1022 30.18 852 25.16 30.4 86.8 18 3.8 38.8
16:30 1022 30.18 852 25.16 30.5 86.8 19 4.4 39.9
16:35 1022 30.18 852 25.16 30.7 87.2 17 2.8 37.1
16:40 1022 30.18 852 25.16 30.8 87.4 17 3.1 37.5
16:45 1022 30.18 851 25.13 31.1 88 16 2.9 37.3
16:50 1022 30.18 851 25.13 30.9 87.5 17 3.2 37.7
16:55 1022 30.18 851 25.13 30.6 87 16 2.2 35.9
17:00 1022 30.18 851 25.13 30.5 86.8 16 1.8 35.2
17:05 1022 30.18 851 25.13 29.9 85.8 17 2.6 36.7
17:10 1022 30.18 851 25.13 29.7 85.4 17 2.3 36.1
17:15 1022 30.18 851 25.13 29.8 85.6 16 2.1 35.7
17:20 1022 30.18 851 25.13 29.7 85.4 16 1.9 35.4
17:25 1022 30.18 851 25.13 29.6 85.3 17 2.4 36.3
17:30 1022 30.18 851 25.13 29.7 85.4 17 2.7 36.9
17:35 1022 30.18 851 25.13 29.8 85.6 17 2.8 37
17:40 1022 30.18 851 25.13 29.8 85.7 17 2.6 36.7
17:45 1022 30.18 851 25.13 29.9 85.8 17 2.9 37.3
17:50 1022 30.18 851 25.13 30 86 17 2.8 37
17:55 1022 30.18 851 25.13 29.7 85.5 17 2.7 36.8
18:00 1022 30.18 851 25.13 29.6 85.3 17 2.7 36.8
18:05 1022 30.18 851 25.13 29.6 85.2 18 2.8 37
18:10 1022 30.18 851 25.13 29.4 85 18 3.2 37.8
18:15 1022 30.18 851 25.13 29.5 85.1 18 2.7 36.9
18:20 1022 30.18 851 25.13 29.4 85 19 3.7 38.7
18:25 1022 30.18 851 25.13 29.3 84.8 18 2.9 37.2
18:30 1022 30.18 851 25.13 29.1 84.5 18 2.9 37.3
18:35 1022 30.18 851 25.13 29.1 84.3 18 2.9 37.1
18:40 1022 30.18 851 25.13 28.9 84 19 3.1 37.6
18:45 1022 30.18 851 25.13 28.9 84 19 3 37.5
18:50 1022 30.18 851 25.13 28.8 83.8 19 3.3 38
18:55 1022 30.18 851 25.13 28.8 83.8 21 4.3 39.7
19:00 1022 30.18 851 25.13 28.6 83.5 22 4.9 40.8
19:05 1022 30.18 851 25.13 28.5 83.2 21 4.3 39.8
19:10 1022 30.18 851 25.13 28.3 83 22 4.6 40.3
19:15 1022 30.18 851 25.13 28.2 82.8 21 4.3 39.7
19:20 1022 30.18 851 25.13 28.2 82.7 22 4.9 40.8
19:25 1022 30.18 851 25.13 28 82.5 22 4.9 40.9
19:30 1021 30.15 851 25.13 27.9 82.1 23 5.1 41.1
19:35 1021 30.15 851 25.13 27.8 82 23 5.3 41.5
19:40 1022 30.18 851 25.13 27.7 81.8 24 5.5 42
19:45 1022 30.18 851 25.13 27.6 81.6 24 5.6 42.1
19:50 1022 30.18 851 25.13 27.5 81.5 25 5.8 42.4
19:55 1022 30.18 851 25.13 27.4 81.4 24 5.7 42.2
20:00 1022 30.18 851 25.13 27.3 81.2 25 5.8 42.4
20:05 1022 30.18 851 25.13 27.3 81.1 25 5.9 42.6
20:10 1022 30.18 851 25.13 27.2 80.9 25 5.7 42.3
20:15 1022 30.18 851 25.13 27.1 80.7 25 5.7 42.3
20:20 1022 30.18 851 25.13 27 80.5 25 5.7 42.3
20:25 1022 30.18 851 25.13 26.8 80.3 26 5.9 42.7
20:30 1022 30.18 851 25.13 26.6 80 26 5.8 42.5
20:35 1022 30.18 851 25.13 26.5 79.7 26 6 42.7
20:40 1022 30.18 851 25.13 26.4 79.4 27 6.2 43.2
20:45 1022 30.18 851 25.13 26.1 79.1 27 6.1 43
20:50 1022 30.18 851 25.13 25.9 78.7 28 6.3 43.3
20:55 1022 30.18 851 25.13 25.7 78.2 29 6.4 43.5
21:00 1022 30.18 851 25.13 25.6 78 29 6.4 43.5
21:05 1022 30.18 851 25.13 25.4 77.7 29 6.5 43.7
21:10 1022 30.18 851 25.13 25.2 77.3 30 6.5 43.7
21:15 1022 30.18 851 25.13 25 76.9 30 6.6 43.8
21:20 1022 30.18 851 25.13 24.9 76.7 31 6.7 44
21:25 1022 30.18 851 25.13 24.7 76.4 31 6.6 43.8
21:30 1022 30.18 851 25.13 24.5 76.1 31 6.6 44
21:35 1022 30.18 852 25.16 24.3 75.8 32 6.7 44
21:40 1022 30.18 852 25.16 24.3 75.7 32 6.6 43.9
21:45 1022 30.18 852 25.16 24.2 75.6 32 6.6 43.9
21:50 1022 30.18 852 25.16 24.2 75.5 32 6.5 43.7
21:55 1022 30.18 852 25.16 24.2 75.6 32 6.5 43.8
22:00 1022 30.18 852 25.16 24.1 75.5 32 6.5 43.7
22:05 1022 30.18 852 25.16 24.1 75.4 32 6.5 43.8
22:10 1022 30.18 852 25.16 24 75.2 32 6.4 43.6
22:15 1023 30.21 852 25.16 23.9 75.1 32 6.5 43.7
22:20 1023 30.21 852 25.16 23.9 75.1 32 6.3 43.4
22:25 1023 30.21 852 25.16 23.9 75 32 6.3 43.3
22:30 1023 30.21 852 25.16 23.9 75 31 6 42.8
22:35 1023 30.21 852 25.16 24 75.1 31 6 42.8
22:40 1023 30.21 852 25.16 24 75.1 31 6.1 42.9
22:45 1022 30.18 852 25.16 23.9 75 31 6 42.9
22:50 1022 30.18 852 25.16 23.9 74.9 31 5.9 42.7
22:55 1022 30.18 852 25.16 23.9 74.9 31 5.8 42.5
23:00 1022 30.18 852 25.16 23.9 75.1 31 5.9 42.6
23:05 1022 30.18 852 25.16 23.9 75 31 5.9 42.6
23:10 1022 30.18 852 25.16 23.9 75 31 5.9 42.6
23:15 1022 30.18 852 25.16 23.9 75 31 5.9 42.6
23:20 1022 30.18 852 25.16 23.8 74.9 31 6 42.7
23:25 1022 30.18 852 25.16 23.7 74.7 31 6 42.8
23:30 1022 30.18 852 25.16 23.8 74.8 31 6.1 42.9
23:35 1022 30.18 852 25.16 23.7 74.7 32 6.1 43
23:40 1022 30.18 852 25.16 23.6 74.6 32 6.2 43.2
23:45 1022 30.18 852 25.16 23.5 74.3 33 6.3 43.3
23:50 1022 30.18 852 25.16 23.4 74.1 33 6.3 43.3
23:55 1022 30.18 851 25.13 23.4 74.2 33 6.4 43.4
24:00 1022 30.18 851 25.13 23.4 74.1 33 6.4 43.5